sensor_id;sensor_type;location;lat;lon;timestamp;pressure;altitude;pressure_sealevel;temperature;humidity
6427;BME280;3246;42.664;23.308;2022-08-11T00:01:04;120715.88;;;-142.62;64.68
6427;BME280;3246;42.664;23.308;2022-08-11T00:03:34;120715.88;;;-142.62;64.81
6427;BME280;3246;42.664;23.308;2022-08-11T00:06:02;120715.88;;;-142.62;64.77
6427;BME280;3246;42.664;23.308;2022-08-11T00:08:30;120715.88;;;-142.62;64.60
6427;BME280;3246;42.664;23.308;2022-08-11T00:11:02;120715.88;;;-142.62;64.73
6427;BME280;3246;42.664;23.308;2022-08-11T00:13:33;120715.88;;;-142.62;64.98
6427;BME280;3246;42.664;23.308;2022-08-11T00:16:01;120715.88;;;-142.62;65.36
6427;BME280;3246;42.664;23.308;2022-08-11T00:18:30;120715.88;;;-142.62;65.57
6427;BME280;3246;42.664;23.308;2022-08-11T00:21:05;120715.88;;;-142.62;65.96
6427;BME280;3246;42.664;23.308;2022-08-11T00:23:32;120715.88;;;-142.62;66.08
6427;BME280;3246;42.664;23.308;2022-08-11T00:26:05;120715.88;;;-142.62;65.97
6427;BME280;3246;42.664;23.308;2022-08-11T00:28:33;120715.88;;;-142.62;65.95
6427;BME280;3246;42.664;23.308;2022-08-11T00:31:03;120715.88;;;-142.62;65.97
6427;BME280;3246;42.664;23.308;2022-08-11T00:33:34;120715.88;;;-142.62;66.50
6427;BME280;3246;42.664;23.308;2022-08-11T00:36:04;120715.88;;;-142.62;66.21
6427;BME280;3246;42.664;23.308;2022-08-11T00:38:34;120715.88;;;-142.62;66.29
6427;BME280;3246;42.664;23.308;2022-08-11T00:41:15;120715.88;;;-142.62;66.13
6427;BME280;3246;42.664;23.308;2022-08-11T00:43:55;120715.88;;;-142.62;66.38
6427;BME280;3246;42.664;23.308;2022-08-11T00:46:36;120715.88;;;-142.62;66.10
6427;BME280;3246;42.664;23.308;2022-08-11T00:49:15;120715.88;;;-142.62;66.26
6427;BME280;3246;42.664;23.308;2022-08-11T00:51:55;120715.88;;;-142.62;66.35
6427;BME280;3246;42.664;23.308;2022-08-11T00:54:49;120715.88;;;-142.62;66.09
6427;BME280;3246;42.664;23.308;2022-08-11T00:57:38;120715.88;;;-142.62;66.38
6427;BME280;3246;42.664;23.308;2022-08-11T01:00:20;120715.88;;;-142.62;66.44
6427;BME280;3246;42.664;23.308;2022-08-11T01:03:05;120715.88;;;-142.62;66.80
6427;BME280;3246;42.664;23.308;2022-08-11T01:05:59;120715.88;;;-142.62;66.73
6427;BME280;3246;42.664;23.308;2022-08-11T01:12:04;120715.88;;;-142.62;67.57
6427;BME280;3246;42.664;23.308;2022-08-11T01:21:15;120715.88;;;-142.62;66.61
6427;BME280;3246;42.664;23.308;2022-08-11T01:30:43;120715.88;;;-142.62;67.44
6427;BME280;3246;42.664;23.308;2022-08-11T01:33:50;120715.88;;;-142.62;67.54
6427;BME280;3246;42.664;23.308;2022-08-11T01:36:46;120715.88;;;-142.62;67.57
6427;BME280;3246;42.664;23.308;2022-08-11T01:45:48;120715.88;;;-142.62;68.16
6427;BME280;3246;42.664;23.308;2022-08-11T01:48:27;120715.88;;;-142.62;67.94
6427;BME280;3246;42.664;23.308;2022-08-11T01:51:11;120715.88;;;-142.62;67.47
6427;BME280;3246;42.664;23.308;2022-08-11T01:53:52;120715.88;;;-142.62;67.43
6427;BME280;3246;42.664;23.308;2022-08-11T01:56:41;120715.88;;;-142.62;67.39
6427;BME280;3246;42.664;23.308;2022-08-11T01:59:16;120715.88;;;-142.62;67.91
6427;BME280;3246;42.664;23.308;2022-08-11T02:02:07;120715.88;;;-142.62;68.26
6427;BME280;3246;42.664;23.308;2022-08-11T02:04:39;120715.88;;;-142.62;68.55
6427;BME280;3246;42.664;23.308;2022-08-11T02:07:17;120715.88;;;-142.62;69.13
6427;BME280;3246;42.664;23.308;2022-08-11T02:10:05;120715.88;;;-142.62;69.11
6427;BME280;3246;42.664;23.308;2022-08-11T02:12:52;120715.88;;;-142.62;69.04
6427;BME280;3246;42.664;23.308;2022-08-11T02:15:27;120715.88;;;-142.62;69.04
6427;BME280;3246;42.664;23.308;2022-08-11T02:18:05;120715.88;;;-142.62;68.94
6427;BME280;3246;42.664;23.308;2022-08-11T02:20:39;120715.88;;;-142.62;68.71
6427;BME280;3246;42.664;23.308;2022-08-11T02:23:28;120715.88;;;-142.62;68.16
6427;BME280;3246;42.664;23.308;2022-08-11T02:26:13;120715.88;;;-142.62;68.14
6427;BME280;3246;42.664;23.308;2022-08-11T02:28:50;120715.88;;;-142.62;68.35
6427;BME280;3246;42.664;23.308;2022-08-11T02:31:26;120715.88;;;-142.62;68.80
6427;BME280;3246;42.664;23.308;2022-08-11T02:34:18;120715.88;;;-142.62;68.58
6427;BME280;3246;42.664;23.308;2022-08-11T02:36:54;120715.88;;;-142.62;68.82
6427;BME280;3246;42.664;23.308;2022-08-11T02:39:37;120715.88;;;-142.62;69.21
6427;BME280;3246;42.664;23.308;2022-08-11T02:42:18;120715.88;;;-142.62;69.38
6427;BME280;3246;42.664;23.308;2022-08-11T02:44:58;120715.88;;;-142.62;69.74
6427;BME280;3246;42.664;23.308;2022-08-11T02:47:35;120715.88;;;-142.62;69.90
6427;BME280;3246;42.664;23.308;2022-08-11T02:50:14;120715.88;;;-142.62;70.53
6427;BME280;3246;42.664;23.308;2022-08-11T02:52:53;120715.88;;;-142.62;70.81
6427;BME280;3246;42.664;23.308;2022-08-11T02:55:29;120715.88;;;-142.62;70.87
6427;BME280;3246;42.664;23.308;2022-08-11T02:58:10;120715.88;;;-142.62;71.15
6427;BME280;3246;42.664;23.308;2022-08-11T03:00:46;120715.88;;;-142.62;71.04
6427;BME280;3246;42.664;23.308;2022-08-11T03:03:20;120715.88;;;-142.62;70.64
6427;BME280;3246;42.664;23.308;2022-08-11T03:06:03;120715.88;;;-142.62;70.33
6427;BME280;3246;42.664;23.308;2022-08-11T03:08:44;120715.88;;;-142.62;70.01
6427;BME280;3246;42.664;23.308;2022-08-11T03:11:25;120715.88;;;-142.62;70.34
6427;BME280;3246;42.664;23.308;2022-08-11T03:14:21;120715.88;;;-142.62;70.43
6427;BME280;3246;42.664;23.308;2022-08-11T03:17:20;120715.88;;;-142.62;69.95
6427;BME280;3246;42.664;23.308;2022-08-11T03:19:59;120715.88;;;-142.62;69.65
6427;BME280;3246;42.664;23.308;2022-08-11T03:22:35;120715.88;;;-142.62;69.59
6427;BME280;3246;42.664;23.308;2022-08-11T03:25:11;120715.88;;;-142.62;69.52
6427;BME280;3246;42.664;23.308;2022-08-11T03:27:49;120715.88;;;-142.62;69.39
6427;BME280;3246;42.664;23.308;2022-08-11T03:30:24;120715.88;;;-142.62;69.55
6427;BME280;3246;42.664;23.308;2022-08-11T03:33:17;120715.88;;;-142.62;69.58
6427;BME280;3246;42.664;23.308;2022-08-11T03:36:09;120715.88;;;-142.62;69.34
6427;BME280;3246;42.664;23.308;2022-08-11T03:38:49;120715.88;;;-142.62;69.30
6427;BME280;3246;42.664;23.308;2022-08-11T03:41:28;120715.88;;;-142.62;69.39
6427;BME280;3246;42.664;23.308;2022-08-11T03:44:24;120715.88;;;-142.62;69.54
6427;BME280;3246;42.664;23.308;2022-08-11T03:47:05;120715.88;;;-142.62;69.52
6427;BME280;3246;42.664;23.308;2022-08-11T03:49:42;120715.88;;;-142.62;69.46
6427;BME280;3246;42.664;23.308;2022-08-11T03:52:16;120715.88;;;-142.62;69.31
6427;BME280;3246;42.664;23.308;2022-08-11T03:54:53;120715.88;;;-142.62;69.07
6427;BME280;3246;42.664;23.308;2022-08-11T03:57:54;120715.88;;;-142.62;68.97
6427;BME280;3246;42.664;23.308;2022-08-11T04:01:19;120715.88;;;-142.62;68.81
6427;BME280;3246;42.664;23.308;2022-08-11T04:04:20;120715.88;;;-142.62;69.69
6427;BME280;3246;42.664;23.308;2022-08-11T04:07:23;120715.88;;;-142.62;69.88
6427;BME280;3246;42.664;23.308;2022-08-11T04:13:33;120715.88;;;-142.62;70.51
6427;BME280;3246;42.664;23.308;2022-08-11T04:19:35;120715.88;;;-142.62;71.34
6427;BME280;3246;42.664;23.308;2022-08-11T04:22:50;120715.88;;;-142.62;71.61
6427;BME280;3246;42.664;23.308;2022-08-11T04:25:42;120715.88;;;-142.62;71.29
6427;BME280;3246;42.664;23.308;2022-08-11T04:28:43;120715.88;;;-142.62;70.59
6427;BME280;3246;42.664;23.308;2022-08-11T04:31:33;120715.88;;;-142.62;69.76
6427;BME280;3246;42.664;23.308;2022-08-11T04:37:31;120715.88;;;-142.62;70.51
6427;BME280;3246;42.664;23.308;2022-08-11T04:40:11;120715.88;;;-142.62;70.29
6427;BME280;3246;42.664;23.308;2022-08-11T04:46:10;120715.88;;;-142.62;70.72
6427;BME280;3246;42.664;23.308;2022-08-11T04:48:51;120715.88;;;-142.62;71.29
6427;BME280;3246;42.664;23.308;2022-08-11T04:51:53;120715.88;;;-142.62;70.96
6427;BME280;3246;42.664;23.308;2022-08-11T04:55:19;120715.88;;;-142.62;71.51
6427;BME280;3246;42.664;23.308;2022-08-11T04:58:15;120715.88;;;-142.62;71.10
6427;BME280;3246;42.664;23.308;2022-08-11T05:01:17;120715.88;;;-142.62;70.58
6427;BME280;3246;42.664;23.308;2022-08-11T05:04:40;120715.88;;;-142.62;70.94
6427;BME280;3246;42.664;23.308;2022-08-11T05:10:45;120715.88;;;-142.62;70.63
6427;BME280;3246;42.664;23.308;2022-08-11T05:13:25;120715.88;;;-142.62;70.63
6427;BME280;3246;42.664;23.308;2022-08-11T05:16:28;120715.88;;;-142.62;70.54
6427;BME280;3246;42.664;23.308;2022-08-11T05:19:14;120715.88;;;-142.62;70.18
6427;BME280;3246;42.664;23.308;2022-08-11T05:22:12;120715.88;;;-142.62;69.82
6427;BME280;3246;42.664;23.308;2022-08-11T05:25:00;120715.88;;;-142.62;70.25
6427;BME280;3246;42.664;23.308;2022-08-11T05:28:05;120715.88;;;-142.62;70.80
6427;BME280;3246;42.664;23.308;2022-08-11T05:30:55;120715.88;;;-142.62;71.15
6427;BME280;3246;42.664;23.308;2022-08-11T05:33:44;120715.88;;;-142.62;71.43
6427;BME280;3246;42.664;23.308;2022-08-11T05:36:36;120715.88;;;-142.62;71.18
6427;BME280;3246;42.664;23.308;2022-08-11T05:39:14;120715.88;;;-142.62;70.80
6427;BME280;3246;42.664;23.308;2022-08-11T05:41:59;120715.88;;;-142.62;70.79
6427;BME280;3246;42.664;23.308;2022-08-11T05:44:47;120715.88;;;-142.62;71.47
6427;BME280;3246;42.664;23.308;2022-08-11T05:47:33;120715.88;;;-142.62;70.81
6427;BME280;3246;42.664;23.308;2022-08-11T05:50:21;120715.88;;;-142.62;70.38
6427;BME280;3246;42.664;23.308;2022-08-11T05:53:09;120715.88;;;-142.62;70.34
6427;BME280;3246;42.664;23.308;2022-08-11T05:55:53;120715.88;;;-142.62;71.00
6427;BME280;3246;42.664;23.308;2022-08-11T05:58:41;120715.88;;;-142.62;70.83
6427;BME280;3246;42.664;23.308;2022-08-11T06:01:11;120715.88;;;-142.62;71.04
6427;BME280;3246;42.664;23.308;2022-08-11T06:03:42;120715.88;;;-142.62;70.33
6427;BME280;3246;42.664;23.308;2022-08-11T06:06:24;120715.88;;;-142.62;69.77
6427;BME280;3246;42.664;23.308;2022-08-11T06:08:54;120715.88;;;-142.62;69.69
6427;BME280;3246;42.664;23.308;2022-08-11T06:11:22;120715.88;;;-142.62;70.01
6427;BME280;3246;42.664;23.308;2022-08-11T06:13:50;120715.88;;;-142.62;69.36
6427;BME280;3246;42.664;23.308;2022-08-11T06:16:24;120715.88;;;-142.62;69.23
6427;BME280;3246;42.664;23.308;2022-08-11T06:18:53;120715.88;;;-142.62;69.08
6427;BME280;3246;42.664;23.308;2022-08-11T06:21:21;120715.88;;;-142.62;68.95
6427;BME280;3246;42.664;23.308;2022-08-11T06:23:48;120715.88;;;-142.62;68.78
6427;BME280;3246;42.664;23.308;2022-08-11T06:26:15;120715.88;;;-142.62;68.46
6427;BME280;3246;42.664;23.308;2022-08-11T06:28:44;120715.88;;;-142.62;68.27
6427;BME280;3246;42.664;23.308;2022-08-11T06:31:16;120715.88;;;-142.62;68.08
6427;BME280;3246;42.664;23.308;2022-08-11T06:33:54;120715.88;;;-142.62;67.54
6427;BME280;3246;42.664;23.308;2022-08-11T06:36:29;120715.88;;;-142.62;67.12
6427;BME280;3246;42.664;23.308;2022-08-11T06:39:04;120715.88;;;-142.62;66.58
6427;BME280;3246;42.664;23.308;2022-08-11T06:41:39;120715.88;;;-142.62;66.39
6427;BME280;3246;42.664;23.308;2022-08-11T06:44:23;120715.88;;;-142.62;66.42
6427;BME280;3246;42.664;23.308;2022-08-11T06:46:53;120715.88;;;-142.62;66.60
6427;BME280;3246;42.664;23.308;2022-08-11T06:49:35;120715.88;;;-142.62;66.40
6427;BME280;3246;42.664;23.308;2022-08-11T06:52:28;120715.88;;;-142.62;64.31
6427;BME280;3246;42.664;23.308;2022-08-11T06:55:00;120715.88;;;-142.62;62.78
6427;BME280;3246;42.664;23.308;2022-08-11T06:57:32;120715.88;;;-142.62;63.17
6427;BME280;3246;42.664;23.308;2022-08-11T07:00:18;120715.88;;;-142.62;61.90
6427;BME280;3246;42.664;23.308;2022-08-11T07:02:58;120715.88;;;-142.62;60.74
6427;BME280;3246;42.664;23.308;2022-08-11T07:05:38;120715.88;;;-142.62;59.56
6427;BME280;3246;42.664;23.308;2022-08-11T07:15:08;120715.88;;;-142.62;59.37
6427;BME280;3246;42.664;23.308;2022-08-11T07:21:21;120715.88;;;-142.62;59.78
6427;BME280;3246;42.664;23.308;2022-08-11T07:24:12;120715.88;;;-142.62;59.26
6427;BME280;3246;42.664;23.308;2022-08-11T07:26:58;120715.88;;;-142.62;59.10
6427;BME280;3246;42.664;23.308;2022-08-11T07:29:45;120715.88;;;-142.62;58.67
6427;BME280;3246;42.664;23.308;2022-08-11T07:32:18;120715.88;;;-142.62;57.97
6427;BME280;3246;42.664;23.308;2022-08-11T07:34:50;120715.88;;;-142.62;58.62
6427;BME280;3246;42.664;23.308;2022-08-11T07:37:24;120715.88;;;-142.62;57.96
6427;BME280;3246;42.664;23.308;2022-08-11T07:39:53;120715.88;;;-142.62;57.90
6427;BME280;3246;42.664;23.308;2022-08-11T07:42:25;120715.88;;;-142.62;57.66
6427;BME280;3246;42.664;23.308;2022-08-11T07:44:54;120715.88;;;-142.62;56.60
6427;BME280;3246;42.664;23.308;2022-08-11T07:47:40;120715.88;;;-142.62;54.20
6427;BME280;3246;42.664;23.308;2022-08-11T07:50:25;120715.88;;;-142.62;53.07
6427;BME280;3246;42.664;23.308;2022-08-11T07:53:12;120715.88;;;-142.62;53.93
6427;BME280;3246;42.664;23.308;2022-08-11T07:55:41;120715.88;;;-142.62;53.74
6427;BME280;3246;42.664;23.308;2022-08-11T07:58:09;120715.88;;;-142.62;53.00
6427;BME280;3246;42.664;23.308;2022-08-11T08:00:56;120715.88;;;-142.62;52.53
6427;BME280;3246;42.664;23.308;2022-08-11T08:03:41;120715.88;;;-142.62;53.68
6427;BME280;3246;42.664;23.308;2022-08-11T08:06:27;120715.88;;;-142.62;54.08
6427;BME280;3246;42.664;23.308;2022-08-11T08:09:16;120715.88;;;-142.62;53.27
6427;BME280;3246;42.664;23.308;2022-08-11T08:12:02;120715.88;;;-142.62;52.57
6427;BME280;3246;42.664;23.308;2022-08-11T08:14:47;120715.88;;;-142.62;52.22
6427;BME280;3246;42.664;23.308;2022-08-11T08:17:33;120715.88;;;-142.62;52.12
6427;BME280;3246;42.664;23.308;2022-08-11T08:20:24;120715.88;;;-142.62;52.50
6427;BME280;3246;42.664;23.308;2022-08-11T08:22:52;120715.88;;;-142.62;52.24
6427;BME280;3246;42.664;23.308;2022-08-11T08:25:24;120715.88;;;-142.62;52.34
6427;BME280;3246;42.664;23.308;2022-08-11T08:27:52;120715.88;;;-142.62;51.91
6427;BME280;3246;42.664;23.308;2022-08-11T08:30:19;120715.88;;;-142.62;51.05
6427;BME280;3246;42.664;23.308;2022-08-11T08:33:04;120715.88;;;-142.62;50.76
6427;BME280;3246;42.664;23.308;2022-08-11T08:35:31;120715.88;;;-142.62;49.49
6427;BME280;3246;42.664;23.308;2022-08-11T08:37:58;120715.88;;;-142.62;49.77
6427;BME280;3246;42.664;23.308;2022-08-11T08:40:27;120715.88;;;-142.62;50.13
6427;BME280;3246;42.664;23.308;2022-08-11T08:42:56;120715.88;;;-142.62;50.02
6427;BME280;3246;42.664;23.308;2022-08-11T08:45:25;120715.88;;;-142.62;49.89
6427;BME280;3246;42.664;23.308;2022-08-11T08:47:58;120715.88;;;-142.62;49.18
6427;BME280;3246;42.664;23.308;2022-08-11T08:50:30;120715.88;;;-142.62;48.53
6427;BME280;3246;42.664;23.308;2022-08-11T08:53:11;120715.88;;;-142.62;48.87
6427;BME280;3246;42.664;23.308;2022-08-11T08:55:41;120715.88;;;-142.62;48.90
6427;BME280;3246;42.664;23.308;2022-08-11T08:58:11;120715.88;;;-142.62;48.61
6427;BME280;3246;42.664;23.308;2022-08-11T09:00:44;120715.88;;;-142.62;48.40
6427;BME280;3246;42.664;23.308;2022-08-11T09:03:12;120715.88;;;-142.62;48.63
6427;BME280;3246;42.664;23.308;2022-08-11T09:05:40;120715.88;;;-142.62;48.12
6427;BME280;3246;42.664;23.308;2022-08-11T09:08:07;120715.88;;;-142.62;48.20
6427;BME280;3246;42.664;23.308;2022-08-11T09:10:36;120715.88;;;-142.62;47.88
6427;BME280;3246;42.664;23.308;2022-08-11T09:13:05;120715.88;;;-142.62;48.40
6427;BME280;3246;42.664;23.308;2022-08-11T09:15:33;120715.88;;;-142.62;48.47
6427;BME280;3246;42.664;23.308;2022-08-11T09:18:02;120715.88;;;-142.62;48.02
6427;BME280;3246;42.664;23.308;2022-08-11T09:20:35;120715.88;;;-142.62;48.22
6427;BME280;3246;42.664;23.308;2022-08-11T09:23:04;120715.88;;;-142.62;48.25
6427;BME280;3246;42.664;23.308;2022-08-11T09:25:52;120715.88;;;-142.62;48.39
6427;BME280;3246;42.664;23.308;2022-08-11T09:28:38;120715.88;;;-142.62;47.21
6427;BME280;3246;42.664;23.308;2022-08-11T09:31:07;120715.88;;;-142.62;45.24
6427;BME280;3246;42.664;23.308;2022-08-11T09:33:35;120715.88;;;-142.62;45.32
6427;BME280;3246;42.664;23.308;2022-08-11T09:36:03;120715.88;;;-142.62;44.35
6427;BME280;3246;42.664;23.308;2022-08-11T09:38:52;120715.88;;;-142.62;43.42
6427;BME280;3246;42.664;23.308;2022-08-11T09:41:38;120715.88;;;-142.62;43.64
6427;BME280;3246;42.664;23.308;2022-08-11T09:44:08;120715.88;;;-142.62;43.29
6427;BME280;3246;42.664;23.308;2022-08-11T09:46:54;120715.88;;;-142.62;44.46
6427;BME280;3246;42.664;23.308;2022-08-11T09:49:25;120715.88;;;-142.62;44.68
6427;BME280;3246;42.664;23.308;2022-08-11T09:51:53;120715.88;;;-142.62;46.30
6427;BME280;3246;42.664;23.308;2022-08-11T09:54:22;120715.88;;;-142.62;46.42
6427;BME280;3246;42.664;23.308;2022-08-11T09:56:51;120715.88;;;-142.62;46.79
6427;BME280;3246;42.664;23.308;2022-08-11T09:59:39;120715.88;;;-142.62;46.04
6427;BME280;3246;42.664;23.308;2022-08-11T10:02:08;120715.88;;;-142.62;46.43
6427;BME280;3246;42.664;23.308;2022-08-11T10:04:39;120715.88;;;-142.62;45.57
6427;BME280;3246;42.664;23.308;2022-08-11T10:07:07;120715.88;;;-142.62;44.57
6427;BME280;3246;42.664;23.308;2022-08-11T10:09:37;120715.88;;;-142.62;44.69
6427;BME280;3246;42.664;23.308;2022-08-11T10:12:08;120715.88;;;-142.62;45.53
6427;BME280;3246;42.664;23.308;2022-08-11T10:14:41;120715.88;;;-142.62;46.18
6427;BME280;3246;42.664;23.308;2022-08-11T10:17:29;120715.88;;;-142.62;45.88
6427;BME280;3246;42.664;23.308;2022-08-11T10:19:57;120715.88;;;-142.62;45.37
6427;BME280;3246;42.664;23.308;2022-08-11T10:22:28;120715.88;;;-142.62;45.33
6427;BME280;3246;42.664;23.308;2022-08-11T10:25:13;120715.88;;;-142.62;45.13
6427;BME280;3246;42.664;23.308;2022-08-11T10:27:59;120715.88;;;-142.62;44.38
6427;BME280;3246;42.664;23.308;2022-08-11T10:30:30;120715.88;;;-142.62;44.75
6427;BME280;3246;42.664;23.308;2022-08-11T10:33:16;120715.88;;;-142.62;44.01
6427;BME280;3246;42.664;23.308;2022-08-11T10:36:02;120715.88;;;-142.62;44.40
6427;BME280;3246;42.664;23.308;2022-08-11T10:38:30;120715.88;;;-142.62;44.06
6427;BME280;3246;42.664;23.308;2022-08-11T10:40:57;120715.88;;;-142.62;43.45
6427;BME280;3246;42.664;23.308;2022-08-11T10:43:42;120715.88;;;-142.62;43.62
6427;BME280;3246;42.664;23.308;2022-08-11T10:46:12;120715.88;;;-142.62;42.89
6427;BME280;3246;42.664;23.308;2022-08-11T10:48:57;120715.88;;;-142.62;42.92
6427;BME280;3246;42.664;23.308;2022-08-11T10:51:26;120715.88;;;-142.62;42.92
6427;BME280;3246;42.664;23.308;2022-08-11T10:54:11;120715.88;;;-142.62;42.70
6427;BME280;3246;42.664;23.308;2022-08-11T10:56:59;120715.88;;;-142.62;42.37
6427;BME280;3246;42.664;23.308;2022-08-11T10:59:44;120715.88;;;-142.62;42.25
6427;BME280;3246;42.664;23.308;2022-08-11T11:02:13;120715.88;;;-142.62;42.41
6427;BME280;3246;42.664;23.308;2022-08-11T11:04:51;120715.88;;;-142.62;42.70
6427;BME280;3246;42.664;23.308;2022-08-11T11:07:28;120715.88;;;-142.62;43.07
6427;BME280;3246;42.664;23.308;2022-08-11T11:10:00;120715.88;;;-142.62;42.32
6427;BME280;3246;42.664;23.308;2022-08-11T11:12:32;120715.88;;;-142.62;42.19
6427;BME280;3246;42.664;23.308;2022-08-11T11:15:19;120715.88;;;-142.62;42.46
6427;BME280;3246;42.664;23.308;2022-08-11T11:18:08;120715.88;;;-142.62;42.76
6427;BME280;3246;42.664;23.308;2022-08-11T11:20:39;120715.88;;;-142.62;42.83
6427;BME280;3246;42.664;23.308;2022-08-11T11:23:11;120715.88;;;-142.62;42.96
6427;BME280;3246;42.664;23.308;2022-08-11T11:26:04;120715.88;;;-142.62;41.86
6427;BME280;3246;42.664;23.308;2022-08-11T11:31:47;120715.88;;;-142.62;41.59
6427;BME280;3246;42.664;23.308;2022-08-11T11:34:35;120715.88;;;-142.62;41.52
6427;BME280;3246;42.664;23.308;2022-08-11T11:37:04;120715.88;;;-142.62;41.57
6427;BME280;3246;42.664;23.308;2022-08-11T11:39:31;120715.88;;;-142.62;41.64
6427;BME280;3246;42.664;23.308;2022-08-11T11:42:01;120715.88;;;-142.62;41.70
6427;BME280;3246;42.664;23.308;2022-08-11T11:44:30;120715.88;;;-142.62;41.46
6427;BME280;3246;42.664;23.308;2022-08-11T11:47:01;120715.88;;;-142.62;41.49
6427;BME280;3246;42.664;23.308;2022-08-11T11:49:30;120715.88;;;-142.62;41.24
6427;BME280;3246;42.664;23.308;2022-08-11T11:52:00;120715.88;;;-142.62;41.18
6427;BME280;3246;42.664;23.308;2022-08-11T11:54:30;120715.88;;;-142.62;41.42
6427;BME280;3246;42.664;23.308;2022-08-11T11:56:59;120715.88;;;-142.62;41.36
6427;BME280;3246;42.664;23.308;2022-08-11T11:59:49;120715.88;;;-142.62;41.07
6427;BME280;3246;42.664;23.308;2022-08-11T12:02:35;120715.88;;;-142.62;41.98
6427;BME280;3246;42.664;23.308;2022-08-11T12:05:04;120715.88;;;-142.62;41.83
6427;BME280;3246;42.664;23.308;2022-08-11T12:07:32;120715.88;;;-142.62;41.78
6427;BME280;3246;42.664;23.308;2022-08-11T12:10:17;120715.88;;;-142.62;42.17
6427;BME280;3246;42.664;23.308;2022-08-11T12:12:45;120715.88;;;-142.62;42.55
6427;BME280;3246;42.664;23.308;2022-08-11T12:15:30;120715.88;;;-142.62;43.38
6427;BME280;3246;42.664;23.308;2022-08-11T12:17:58;120715.88;;;-142.62;43.64
6427;BME280;3246;42.664;23.308;2022-08-11T12:20:27;120715.88;;;-142.62;43.10
6427;BME280;3246;42.664;23.308;2022-08-11T12:22:55;120715.88;;;-142.62;43.78
6427;BME280;3246;42.664;23.308;2022-08-11T12:26:16;120715.88;;;-142.62;43.66
6427;BME280;3246;42.664;23.308;2022-08-11T12:29:03;120715.88;;;-142.62;43.81
6427;BME280;3246;42.664;23.308;2022-08-11T12:31:30;120715.88;;;-142.62;43.56
6427;BME280;3246;42.664;23.308;2022-08-11T12:34:02;120715.88;;;-142.62;43.05
6427;BME280;3246;42.664;23.308;2022-08-11T12:36:34;120715.88;;;-142.62;42.62
6427;BME280;3246;42.664;23.308;2022-08-11T12:39:05;120715.88;;;-142.62;43.16
6427;BME280;3246;42.664;23.308;2022-08-11T12:41:33;120715.88;;;-142.62;42.93
6427;BME280;3246;42.664;23.308;2022-08-11T12:44:20;120715.88;;;-142.62;42.94
6427;BME280;3246;42.664;23.308;2022-08-11T12:47:21;120715.88;;;-142.62;42.54
6427;BME280;3246;42.664;23.308;2022-08-11T12:49:49;120715.88;;;-142.62;42.66
6427;BME280;3246;42.664;23.308;2022-08-11T12:52:43;120715.88;;;-142.62;43.69
6427;BME280;3246;42.664;23.308;2022-08-11T12:55:12;120715.88;;;-142.62;45.04
6427;BME280;3246;42.664;23.308;2022-08-11T12:58:01;120715.88;;;-142.62;45.91
6427;BME280;3246;42.664;23.308;2022-08-11T13:00:45;120715.88;;;-142.62;45.56
6427;BME280;3246;42.664;23.308;2022-08-11T13:03:31;120715.88;;;-142.62;45.56
6427;BME280;3246;42.664;23.308;2022-08-11T13:06:15;120715.88;;;-142.62;45.97
6427;BME280;3246;42.664;23.308;2022-08-11T13:08:45;120715.88;;;-142.62;45.94
6427;BME280;3246;42.664;23.308;2022-08-11T13:11:15;120715.88;;;-142.62;46.49
6427;BME280;3246;42.664;23.308;2022-08-11T13:14:00;120715.88;;;-142.62;46.25
6427;BME280;3246;42.664;23.308;2022-08-11T13:16:31;120715.88;;;-142.62;45.84
6427;BME280;3246;42.664;23.308;2022-08-11T13:19:20;120715.88;;;-142.62;45.37
6427;BME280;3246;42.664;23.308;2022-08-11T13:21:48;120715.88;;;-142.62;45.75
6427;BME280;3246;42.664;23.308;2022-08-11T13:24:18;120715.88;;;-142.62;45.60
6427;BME280;3246;42.664;23.308;2022-08-11T13:26:46;120715.88;;;-142.62;44.61
6427;BME280;3246;42.664;23.308;2022-08-11T13:29:17;120715.88;;;-142.62;43.55
6427;BME280;3246;42.664;23.308;2022-08-11T13:31:44;120715.88;;;-142.62;43.40
6427;BME280;3246;42.664;23.308;2022-08-11T13:34:12;120715.88;;;-142.62;42.53
6427;BME280;3246;42.664;23.308;2022-08-11T13:36:40;120715.88;;;-142.62;42.55
6427;BME280;3246;42.664;23.308;2022-08-11T13:39:08;120715.88;;;-142.62;42.48
6427;BME280;3246;42.664;23.308;2022-08-11T13:41:39;120715.88;;;-142.62;42.33
6427;BME280;3246;42.664;23.308;2022-08-11T13:44:10;120715.88;;;-142.62;41.90
6427;BME280;3246;42.664;23.308;2022-08-11T13:46:38;120715.88;;;-142.62;42.01
6427;BME280;3246;42.664;23.308;2022-08-11T13:49:07;120715.88;;;-142.62;41.61
6427;BME280;3246;42.664;23.308;2022-08-11T13:51:36;120715.88;;;-142.62;41.37
6427;BME280;3246;42.664;23.308;2022-08-11T13:54:05;120715.88;;;-142.62;40.88
6427;BME280;3246;42.664;23.308;2022-08-11T13:56:37;120715.88;;;-142.62;40.86
6427;BME280;3246;42.664;23.308;2022-08-11T13:59:06;120715.88;;;-142.62;40.27
6427;BME280;3246;42.664;23.308;2022-08-11T14:01:37;120715.88;;;-142.62;40.02
6427;BME280;3246;42.664;23.308;2022-08-11T14:04:08;120715.88;;;-142.62;39.51
6427;BME280;3246;42.664;23.308;2022-08-11T14:06:40;120715.88;;;-142.62;39.07
6427;BME280;3246;42.664;23.308;2022-08-11T14:09:09;120715.88;;;-142.62;38.50
6427;BME280;3246;42.664;23.308;2022-08-11T14:11:40;120715.88;;;-142.62;38.59
6427;BME280;3246;42.664;23.308;2022-08-11T14:14:30;120715.88;;;-142.62;38.41
6427;BME280;3246;42.664;23.308;2022-08-11T14:17:04;120715.88;;;-142.62;38.72
6427;BME280;3246;42.664;23.308;2022-08-11T14:19:35;120715.88;;;-142.62;38.30
6427;BME280;3246;42.664;23.308;2022-08-11T14:22:04;120715.88;;;-142.62;37.77
6427;BME280;3246;42.664;23.308;2022-08-11T14:24:35;120715.88;;;-142.62;37.70
6427;BME280;3246;42.664;23.308;2022-08-11T14:27:05;120715.88;;;-142.62;38.05
6427;BME280;3246;42.664;23.308;2022-08-11T14:29:33;120715.88;;;-142.62;38.32
6427;BME280;3246;42.664;23.308;2022-08-11T14:32:05;120715.88;;;-142.62;37.97